PWSweather.com
Personal Weather Stations
Station Observations
STPETERS
BroadstairsGB

BroadstairsGB

Lat: 51.37, Lon: 1.423

Elevation: 141

Station Type: WH1081

Latest ConditionsUpdated 6:30:03 AM GMT Wednesday, Apr 25, 2018
Currently Today's Max Today's Min Today's Average
Temperature 50.9°F10.5°C 54.0°F12.2°C 50.7°F10.4°C 52.2°F11.2°C
Dew Point 27.5°F-2.5°C 30.2°F-1.0°C 27.3°F-2.6°C 28.6°F-1.9°C
Winds 8.7 mph N14.0 kmh N 13.5 mph W21.7 kmh W - 9.4 mph 15.1 kmh
Wind Gusts 11.4 mph18.3 kmh 21.3 mph34.3 kmh - -
Humidity 40% 40% 40% 40%
Pressure 29.86 in1011.2 mb 29.86 in1011.2 mb 29.74 in1007.1 mb -
Hour Temp Dew Point Humidity Winds Wind Gusts Pressure Precip Precip Rate Daily Precip Total
06:30 AM 50.9°F10.5°C 27.5°F-2.5°C 40% 8.7 mph N14.0 kmh N 11.4 mph18.3 kmh 29.86 in1011.2 mb 0.00 in0.0 mm 0.00 in0.0 mm 0.00 in0.0 mm
06:15 AM 50.9°F10.5°C 27.5°F-2.5°C 40% 7.1 mph N11.4 kmh N 11.4 mph18.3 kmh 29.85 in1010.8 mb 0.00 in0.0 mm 0.00 in0.0 mm 0.00 in0.0 mm
06:00 AM 51.1°F10.6°C 27.6°F-2.4°C 40% 7.3 mph N11.7 kmh N 9.8 mph15.8 kmh 29.85 in1010.8 mb 0.00 in0.0 mm 0.00 in0.0 mm 0.00 in0.0 mm
05:45 AM 50.9°F10.5°C 27.5°F-2.5°C 40% 7.6 mph N12.2 kmh N 9.8 mph15.8 kmh 29.84 in1010.5 mb 0.00 in0.0 mm 0.00 in0.0 mm 0.00 in0.0 mm
05:30 AM 50.7°F10.4°C 27.3°F-2.6°C 40% 9.0 mph N14.5 kmh N 12.1 mph19.5 kmh 29.83 in1010.2 mb 0.00 in0.0 mm 0.00 in0.0 mm 0.00 in0.0 mm
05:15 AM 50.7°F10.4°C 27.3°F-2.6°C 40% 6.6 mph N10.6 kmh N 10.7 mph17.2 kmh 29.83 in1010.2 mb 0.00 in0.0 mm 0.00 in0.0 mm 0.00 in0.0 mm
05:00 AM 51.1°F10.6°C 27.6°F-2.4°C 40% 8.8 mph N14.2 kmh N 13.0 mph20.9 kmh 29.82 in1009.8 mb 0.00 in0.0 mm 0.00 in0.0 mm 0.00 in0.0 mm
04:45 AM 51.1°F10.6°C 27.6°F-2.4°C 40% 7.7 mph N12.4 kmh N 9.8 mph15.8 kmh 29.82 in1009.8 mb 0.00 in0.0 mm 0.00 in0.0 mm 0.00 in0.0 mm
04:30 AM 51.1°F10.6°C 27.6°F-2.4°C 40% 7.8 mph N12.6 kmh N 10.7 mph17.2 kmh 29.81 in1009.5 mb 0.00 in0.0 mm 0.00 in0.0 mm 0.00 in0.0 mm
04:15 AM 51.3°F10.7°C 27.8°F-2.3°C 40% 8.0 mph N12.9 kmh N 11.4 mph18.3 kmh 29.81 in1009.5 mb 0.00 in0.0 mm 0.00 in0.0 mm 0.00 in0.0 mm
04:00 AM 51.3°F10.7°C 27.8°F-2.3°C 40% 8.8 mph N14.2 kmh N 11.4 mph18.3 kmh 29.80 in1009.1 mb 0.00 in0.0 mm 0.00 in0.0 mm 0.00 in0.0 mm
03:45 AM 51.3°F10.7°C 27.8°F-2.3°C 40% 8.3 mph N13.4 kmh N 11.4 mph18.3 kmh 29.80 in1009.1 mb 0.00 in0.0 mm 0.00 in0.0 mm 0.00 in0.0 mm
03:30 AM 51.1°F10.6°C 27.6°F-2.4°C 40% 7.1 mph N11.4 kmh N 10.7 mph17.2 kmh 29.80 in1009.1 mb 0.00 in0.0 mm 0.00 in0.0 mm 0.00 in0.0 mm
03:15 AM 50.9°F10.5°C 27.5°F-2.5°C 40% 8.0 mph N12.9 kmh N 9.8 mph15.8 kmh 29.79 in1008.8 mb 0.00 in0.0 mm 0.00 in0.0 mm 0.00 in0.0 mm
03:00 AM 51.3°F10.7°C 27.8°F-2.3°C 40% 8.1 mph N13.0 kmh N 9.8 mph15.8 kmh 29.79 in1008.8 mb 0.00 in0.0 mm 0.00 in0.0 mm 0.00 in0.0 mm
02:30 AM 53.8°F12.1°C 30.0°F-1.1°C 40% 11.9 mph N19.2 kmh N 15.2 mph24.5 kmh 29.77 in1008.1 mb 0.00 in0.0 mm 0.00 in0.0 mm 0.00 in0.0 mm
02:15 AM 54.0°F12.2°C 30.2°F-1.0°C 40% 10.0 mph N16.1 kmh N 13.6 mph21.9 kmh 29.76 in1007.8 mb 0.00 in0.0 mm 0.00 in0.0 mm 0.00 in0.0 mm
02:00 AM 54.0°F12.2°C 30.2°F-1.0°C 40% 7.9 mph N12.7 kmh N 9.8 mph15.8 kmh 29.75 in1007.5 mb 0.00 in0.0 mm 0.00 in0.0 mm 0.00 in0.0 mm
01:45 AM 53.8°F12.1°C 30.0°F-1.1°C 40% 8.4 mph WSW13.5 kmh WSW 13.0 mph20.9 kmh 29.75 in1007.5 mb 0.00 in0.0 mm 0.00 in0.0 mm 0.00 in0.0 mm
01:30 AM 53.6°F12.0°C 29.9°F-1.2°C 40% 12.6 mph W20.3 kmh W 15.2 mph24.5 kmh 29.75 in1007.5 mb 0.00 in0.0 mm 0.00 in0.0 mm 0.00 in0.0 mm
01:15 AM 53.4°F11.9°C 29.7°F-1.3°C 40% 12.2 mph WSW19.6 kmh WSW 16.8 mph27.0 kmh 29.75 in1007.5 mb 0.00 in0.0 mm 0.00 in0.0 mm 0.00 in0.0 mm
01:00 AM 53.6°F12.0°C 29.9°F-1.2°C 40% 12.4 mph WSW20.0 kmh WSW 17.4 mph28.0 kmh 29.74 in1007.1 mb 0.00 in0.0 mm 0.00 in0.0 mm 0.00 in0.0 mm
12:45 AM 53.6°F12.0°C 29.9°F-1.2°C 40% 12.2 mph W19.6 kmh W 21.3 mph34.3 kmh 29.74 in1007.1 mb 0.00 in0.0 mm 0.00 in0.0 mm 0.00 in0.0 mm
12:30 AM 53.6°F12.0°C 29.9°F-1.2°C 40% 13.5 mph W21.7 kmh W 19.0 mph30.6 kmh 29.75 in1007.5 mb 0.00 in0.0 mm 0.00 in0.0 mm 0.00 in0.0 mm
12:15 AM 53.8°F12.1°C 30.0°F-1.1°C 40% 12.4 mph W20.0 kmh W 17.4 mph28.0 kmh 29.75 in1007.5 mb 0.00 in0.0 mm 0.00 in0.0 mm 0.00 in0.0 mm
12:00 AM 53.8°F12.1°C 30.0°F-1.1°C 40% 13.0 mph WSW20.9 kmh WSW 17.4 mph28.0 kmh 29.74 in1007.1 mb 0.00 in0.0 mm 0.00 in0.0 mm 0.00 in0.0 mm